Time;durP1;ratioP1;P1;durP2;ratioP2;P2;SDS_P1;SDS_P2;PMS_P1;PMS_P2;Temp;Humidity;BMP_temperature;BMP_pressure;BME280_temperature;BME280_humidity;BME280_pressure;Samples;Min_cycle;Max_cycle;Signal;HPM_P1;HPM_P2
2024/04/14 00:03:39;;;;;;;5.28;2.90;;;;;;;;;;5279587;26;20012;-59
2024/04/14 00:06:04;;;;;;;6.75;2.78;;;;;;;;;;5265120;26;20002;-60
2024/04/14 00:08:30;;;;;;;4.45;2.75;;;;;;;;;;5274028;27;20025;-62
2024/04/14 00:10:57;;;;;;;4.90;2.75;;;;;;;;;;5295663;27;20132;-60
2024/04/14 00:13:23;;;;;;;5.65;2.65;;;;;;;;;;5300101;26;20006;-60
2024/04/14 00:15:48;;;;;;;4.32;2.78;;;;;;;;;;5280652;27;20035;-60
2024/04/14 00:18:13;;;;;;;4.50;3.10;;;;;;;;;;5270179;27;20021;-64
2024/04/14 00:20:38;;;;;;;5.35;2.60;;;;;;;;;;5269749;27;20017;-65
2024/04/14 00:23:04;;;;;;;5.78;3.22;;;;;;;;;;5279302;26;20075;-61
2024/04/14 00:25:29;;;;;;;4.00;2.67;;;;;;;;;;5300155;27;20005;-60
2024/04/14 00:27:54;;;;;;;3.58;2.45;;;;;;;;;;5295396;26;19997;-60
2024/04/14 00:30:20;;;;;;;4.80;2.88;;;;;;;;;;5274461;27;19998;-62
2024/04/14 00:32:47;;;;;;;4.03;2.70;;;;;;;;;;5271335;26;19998;-61
2024/04/14 00:35:12;;;;;;;4.35;2.90;;;;;;;;;;5291261;26;20021;-62
2024/04/14 00:37:37;;;;;;;4.88;2.80;;;;;;;;;;5284332;27;20463;-62
2024/04/14 00:40:03;;;;;;;3.78;2.55;;;;;;;;;;5270432;27;20018;-61
2024/04/14 00:42:28;;;;;;;5.93;2.67;;;;;;;;;;5271506;26;20006;-61
2024/04/14 00:44:54;;;;;;;5.95;3.00;;;;;;;;;;5281793;26;19998;-64
2024/04/14 00:47:19;;;;;;;5.65;2.70;;;;;;;;;;5274550;27;20014;-62
2024/04/14 00:49:44;;;;;;;4.82;2.60;;;;;;;;;;5250347;27;19998;-61
2024/04/14 00:52:10;;;;;;;3.22;2.50;;;;;;;;;;5296378;27;20070;-61
2024/04/14 00:54:35;;;;;;;3.97;2.50;;;;;;;;;;5301243;26;20316;-60
2024/04/14 00:57:01;;;;;;;3.95;2.80;;;;;;;;;;5265052;27;20489;-63
2024/04/14 00:59:26;;;;;;;4.68;2.70;;;;;;;;;;5273825;27;20445;-62
2024/04/14 01:01:52;;;;;;;8.77;2.58;;;;;;;;;;5291474;26;19997;-61
2024/04/14 01:04:17;;;;;;;3.67;2.45;;;;;;;;;;5294871;26;20029;-63
2024/04/14 01:06:42;;;;;;;6.15;2.60;;;;;;;;;;5271149;27;20424;-63
2024/04/14 01:09:08;;;;;;;3.72;2.28;;;;;;;;;;5281812;27;20005;-62
2024/04/14 01:11:34;;;;;;;5.72;2.42;;;;;;;;;;5302924;27;20001;-62
2024/04/14 01:14:02;;;;;;;5.47;3.00;;;;;;;;;;5298102;26;20002;-63
2024/04/14 01:16:29;;;;;;;4.60;2.72;;;;;;;;;;5269301;27;20017;-63
2024/04/14 01:18:54;;;;;;;4.15;2.53;;;;;;;;;;5282360;27;20469;-62
2024/04/14 01:21:20;;;;;;;4.25;2.72;;;;;;;;;;5269508;27;20002;-64
2024/04/14 01:23:45;;;;;;;5.80;2.80;;;;;;;;;;5274384;26;20018;-62
2024/04/14 01:26:10;;;;;;;5.95;2.72;;;;;;;;;;5301686;27;20391;-62
2024/04/14 01:28:35;;;;;;;4.88;2.50;;;;;;;;;;5300159;26;20550;-62
2024/04/14 01:31:01;;;;;;;3.60;2.50;;;;;;;;;;5303099;26;20083;-62
2024/04/14 01:33:26;;;;;;;5.03;3.08;;;;;;;;;;5303379;26;20079;-62
2024/04/14 01:35:51;;;;;;;5.75;2.67;;;;;;;;;;5287747;26;20094;-63
2024/04/14 01:38:17;;;;;;;4.65;2.53;;;;;;;;;;5282964;26;20051;-62
2024/04/14 01:40:42;;;;;;;4.40;2.55;;;;;;;;;;5280818;26;20141;-63
2024/04/14 01:43:07;;;;;;;5.47;2.50;;;;;;;;;;5300668;27;20021;-65
2024/04/14 01:45:33;;;;;;;4.55;2.38;;;;;;;;;;5276757;27;20081;-63
2024/04/14 01:47:58;;;;;;;3.85;2.40;;;;;;;;;;5283272;26;20003;-62
2024/04/14 01:50:23;;;;;;;5.18;2.78;;;;;;;;;;5300501;26;20001;-61
2024/04/14 01:52:49;;;;;;;5.20;2.70;;;;;;;;;;5281768;27;20061;-63
2024/04/14 01:55:14;;;;;;;5.50;2.90;;;;;;;;;;5291672;26;20013;-60
2024/04/14 01:57:39;;;;;;;5.95;2.70;;;;;;;;;;5286790;27;20017;-63
2024/04/14 02:00:05;;;;;;;4.75;2.85;;;;;;;;;;5282368;27;20006;-60
2024/04/14 02:02:31;;;;;;;5.40;2.50;;;;;;;;;;5299741;26;20452;-61
2024/04/14 02:04:56;;;;;;;4.72;2.53;;;;;;;;;;5288414;27;20049;-61
2024/04/14 02:07:22;;;;;;;4.53;2.47;;;;;;;;;;5284759;26;20002;-63
2024/04/14 02:09:49;;;;;;;3.63;2.65;;;;;;;;;;5288769;26;20005;-61
2024/04/14 02:12:14;;;;;;;3.28;2.60;;;;;;;;;;5279957;27;20006;-63
2024/04/14 02:14:40;;;;;;;5.00;2.90;;;;;;;;;;5279889;26;20075;-62
2024/04/14 02:17:05;;;;;;;6.85;3.33;;;;;;;;;;5301508;26;20139;-62
2024/04/14 02:19:30;;;;;;;5.53;3.38;;;;;;;;;;5271999;27;19998;-61
2024/04/14 02:21:56;;;;;;;4.40;3.03;;;;;;;;;;5242501;27;20148;-61
2024/04/14 02:24:21;;;;;;;6.32;3.33;;;;;;;;;;5273641;26;20100;-60
2024/04/14 02:26:46;;;;;;;5.30;3.35;;;;;;;;;;5253994;27;20765;-64
2024/04/14 02:29:12;;;;;;;5.07;3.40;;;;;;;;;;5272031;27;20038;-64
2024/04/14 02:31:37;;;;;;;5.63;3.40;;;;;;;;;;5288561;26;20013;-61
2024/04/14 02:34:02;;;;;;;5.63;3.70;;;;;;;;;;5314859;26;20824;-64
2024/04/14 02:36:28;;;;;;;5.35;3.65;;;;;;;;;;5273243;26;20081;-61
2024/04/14 02:38:53;;;;;;;7.78;3.78;;;;;;;;;;5272330;27;20399;-61
2024/04/14 02:41:19;;;;;;;8.68;4.00;;;;;;;;;;5269583;27;20503;-62
2024/04/14 02:43:45;;;;;;;5.47;3.30;;;;;;;;;;5282092;27;20447;-62
2024/04/14 02:46:11;;;;;;;4.75;3.28;;;;;;;;;;5276469;26;20018;-61
2024/04/14 02:48:37;;;;;;;6.28;3.40;;;;;;;;;;5300542;27;20432;-63
2024/04/14 02:51:02;;;;;;;5.88;3.25;;;;;;;;;;5298846;27;20002;-64
2024/04/14 02:53:28;;;;;;;5.72;3.22;;;;;;;;;;5271817;27;20369;-62
2024/04/14 02:55:53;;;;;;;6.70;3.33;;;;;;;;;;5273492;26;20014;-63
2024/04/14 02:58:19;;;;;;;8.10;3.70;;;;;;;;;;5289380;27;20009;-61
2024/04/14 03:00:44;;;;;;;5.72;3.20;;;;;;;;;;5281572;27;20082;-61
2024/04/14 03:03:09;;;;;;;4.43;3.22;;;;;;;;;;5305619;27;20001;-62
2024/04/14 03:05:34;;;;;;;5.07;3.50;;;;;;;;;;5284542;27;20002;-62
2024/04/14 03:08:00;;;;;;;7.75;3.17;;;;;;;;;;5276254;27;20031;-61
2024/04/14 03:10:25;;;;;;;4.80;3.35;;;;;;;;;;5296740;27;20672;-62
2024/04/14 03:12:50;;;;;;;6.03;3.90;;;;;;;;;;5275670;27;20006;-64
2024/04/14 03:15:16;;;;;;;6.97;3.83;;;;;;;;;;5293885;26;20014;-61
2024/04/14 03:17:41;;;;;;;6.28;4.03;;;;;;;;;;5282187;27;20088;-62
2024/04/14 03:20:06;;;;;;;7.28;4.07;;;;;;;;;;5278270;27;19999;-63
2024/04/14 03:22:32;;;;;;;8.80;4.93;;;;;;;;;;5298535;26;20459;-63
2024/04/14 03:24:57;;;;;;;6.63;4.70;;;;;;;;;;5293261;26;20022;-62
2024/04/14 03:27:23;;;;;;;7.78;4.57;;;;;;;;;;5239466;27;20119;-63
2024/04/14 03:29:48;;;;;;;7.57;4.57;;;;;;;;;;5270636;27;19999;-61
2024/04/14 03:32:13;;;;;;;10.07;5.18;;;;;;;;;;5294577;26;20002;-63
2024/04/14 03:34:39;;;;;;;8.30;5.13;;;;;;;;;;5278124;26;20608;-63
2024/04/14 03:37:07;;;;;;;7.38;4.80;;;;;;;;;;5270200;27;20010;-60
2024/04/14 03:39:32;;;;;;;7.85;5.00;;;;;;;;;;5253201;27;20001;-61
2024/04/14 03:41:57;;;;;;;5.57;4.70;;;;;;;;;;5285496;27;20021;-61
2024/04/14 03:44:23;;;;;;;6.80;4.68;;;;;;;;;;5276153;26;20345;-60
2024/04/14 03:46:48;;;;;;;7.45;4.50;;;;;;;;;;5277251;26;20798;-63
2024/04/14 03:49:13;;;;;;;8.75;4.80;;;;;;;;;;5269787;27;20006;-61
2024/04/14 03:51:39;;;;;;;5.13;4.53;;;;;;;;;;5302072;26;20016;-61
2024/04/14 03:54:04;;;;;;;7.20;5.40;;;;;;;;;;5284074;27;20089;-61
2024/04/14 03:56:29;;;;;;;5.88;5.15;;;;;;;;;;5298549;26;20014;-61
2024/04/14 03:58:55;;;;;;;5.68;4.38;;;;;;;;;;5283363;27;20016;-60
2024/04/14 04:01:20;;;;;;;8.52;4.88;;;;;;;;;;5290986;27;20021;-62
2024/04/14 04:03:46;;;;;;;9.10;4.65;;;;;;;;;;5283848;27;20196;-63
2024/04/14 04:06:11;;;;;;;10.13;5.05;;;;;;;;;;5275853;26;20006;-60
2024/04/14 04:08:36;;;;;;;6.15;4.72;;;;;;;;;;5288592;26;20035;-61
2024/04/14 04:11:02;;;;;;;5.38;4.60;;;;;;;;;;5295354;26;20002;-61
2024/04/14 04:13:30;;;;;;;6.60;4.63;;;;;;;;;;5270042;27;20006;-61
2024/04/14 04:15:56;;;;;;;6.78;4.38;;;;;;;;;;5274558;26;20009;-61
2024/04/14 04:18:22;;;;;;;8.15;5.07;;;;;;;;;;5279894;27;20005;-60
2024/04/14 04:20:52;;;;;;;6.88;4.45;;;;;;;;;;5288908;27;20137;-60
2024/04/14 04:23:17;;;;;;;7.93;4.87;;;;;;;;;;5274360;26;20006;-60
2024/04/14 04:25:42;;;;;;;7.28;4.95;;;;;;;;;;5284466;26;20340;-60
2024/04/14 04:28:08;;;;;;;7.45;5.15;;;;;;;;;;5302484;27;20029;-64
2024/04/14 04:30:33;;;;;;;7.85;5.00;;;;;;;;;;5277331;27;20445;-60
2024/04/14 04:32:58;;;;;;;8.02;4.72;;;;;;;;;;5270142;27;20329;-62
2024/04/14 04:35:23;;;;;;;8.63;5.30;;;;;;;;;;5283129;26;20435;-60
2024/04/14 04:37:49;;;;;;;6.05;4.80;;;;;;;;;;5271200;27;19998;-60
2024/04/14 04:40:14;;;;;;;7.30;5.05;;;;;;;;;;5289689;27;20036;-59
2024/04/14 04:42:39;;;;;;;7.22;5.00;;;;;;;;;;5274349;26;20038;-60
2024/04/14 04:45:05;;;;;;;8.68;5.40;;;;;;;;;;5285030;26;20016;-59
2024/04/14 04:47:30;;;;;;;9.75;4.70;;;;;;;;;;5283143;26;20116;-61
2024/04/14 04:49:56;;;;;;;6.97;5.10;;;;;;;;;;5282474;26;20614;-60
2024/04/14 04:52:22;;;;;;;8.45;5.85;;;;;;;;;;5283689;26;20092;-61
2024/04/14 04:54:47;;;;;;;7.65;4.85;;;;;;;;;;5282039;26;20006;-62
2024/04/14 04:57:12;;;;;;;6.82;5.00;;;;;;;;;;5284733;26;20001;-63
2024/04/14 04:59:38;;;;;;;7.40;5.15;;;;;;;;;;5279505;26;20433;-62
2024/04/14 05:02:03;;;;;;;9.90;5.45;;;;;;;;;;5252131;27;20002;-61
2024/04/14 05:04:28;;;;;;;8.40;5.13;;;;;;;;;;5282769;26;20440;-63
2024/04/14 05:06:54;;;;;;;6.88;5.20;;;;;;;;;;5277876;26;20017;-61
2024/04/14 05:09:19;;;;;;;9.45;5.50;;;;;;;;;;5281097;26;20038;-60
2024/04/14 05:11:44;;;;;;;9.68;5.13;;;;;;;;;;5279138;26;21135;-61
2024/04/14 05:14:10;;;;;;;7.45;5.32;;;;;;;;;;5282521;26;20009;-62
2024/04/14 05:16:35;;;;;;;8.27;5.30;;;;;;;;;;5281934;26;20627;-61
2024/04/14 05:19:00;;;;;;;8.10;5.18;;;;;;;;;;5279033;26;20002;-61
2024/04/14 05:21:26;;;;;;;7.47;5.07;;;;;;;;;;5281311;26;20461;-62
2024/04/14 05:23:51;;;;;;;6.90;4.90;;;;;;;;;;5281548;26;20021;-61
2024/04/14 05:26:16;;;;;;;9.52;6.13;;;;;;;;;;5280890;26;20016;-64
2024/04/14 05:28:42;;;;;;;9.63;6.68;;;;;;;;;;5278824;26;19997;-60
2024/04/14 05:31:07;;;;;;;9.13;7.03;;;;;;;;;;5276402;26;20075;-61
2024/04/14 05:33:32;;;;;;;10.40;6.63;;;;;;;;;;5282012;26;20005;-61
2024/04/14 05:35:58;;;;;;;9.73;6.60;;;;;;;;;;5283847;26;20377;-62
2024/04/14 05:38:23;;;;;;;11.82;7.45;;;;;;;;;;5280158;26;20061;-61
2024/04/14 05:40:49;;;;;;;13.40;9.77;;;;;;;;;;5276228;26;20002;-61
2024/04/14 05:43:14;;;;;;;8.50;7.05;;;;;;;;;;5296100;26;19997;-62
2024/04/14 05:45:39;;;;;;;10.10;7.68;;;;;;;;;;5281103;26;20005;-65
2024/04/14 05:48:05;;;;;;;9.95;7.70;;;;;;;;;;5279737;26;20002;-61
2024/04/14 05:50:30;;;;;;;12.23;6.85;;;;;;;;;;5282896;26;20006;-64
2024/04/14 05:52:56;;;;;;;8.65;6.00;;;;;;;;;;5281703;26;20012;-63
2024/04/14 05:55:21;;;;;;;9.18;5.97;;;;;;;;;;5279879;26;20783;-62
2024/04/14 05:57:46;;;;;;;7.75;5.38;;;;;;;;;;5280934;26;22431;-63
2024/04/14 06:00:12;;;;;;;6.60;5.47;;;;;;;;;;5278390;26;20389;-61
2024/04/14 06:02:37;;;;;;;8.48;5.68;;;;;;;;;;5278675;26;20017;-65
2024/04/14 06:05:02;;;;;;;10.32;4.82;;;;;;;;;;5280295;26;20132;-64
2024/04/14 06:07:28;;;;;;;8.48;5.03;;;;;;;;;;5257012;27;20044;-61
2024/04/14 06:09:53;;;;;;;7.35;4.80;;;;;;;;;;5279797;26;19999;-65
2024/04/14 06:12:18;;;;;;;9.07;5.47;;;;;;;;;;5276183;26;19997;-64
2024/04/14 06:14:45;;;;;;;7.10;5.20;;;;;;;;;;5285065;26;20020;-63
2024/04/14 06:17:10;;;;;;;7.32;5.15;;;;;;;;;;5279549;26;20010;-64
2024/04/14 06:19:36;;;;;;;9.55;5.40;;;;;;;;;;5276863;26;20016;-62
2024/04/14 06:22:01;;;;;;;10.05;5.22;;;;;;;;;;5281782;26;20008;-62
2024/04/14 06:24:27;;;;;;;7.78;5.10;;;;;;;;;;5286057;26;20002;-62
2024/04/14 06:26:52;;;;;;;9.23;5.18;;;;;;;;;;5248762;26;20130;-63
2024/04/14 06:29:17;;;;;;;13.02;5.93;;;;;;;;;;5278942;26;20973;-62
2024/04/14 06:31:43;;;;;;;8.57;5.35;;;;;;;;;;5281045;26;20019;-62
2024/04/14 06:34:08;;;;;;;9.85;5.00;;;;;;;;;;5283361;26;20004;-62
2024/04/14 06:36:33;;;;;;;8.40;4.85;;;;;;;;;;5284160;26;20002;-64
2024/04/14 06:38:59;;;;;;;9.65;4.75;;;;;;;;;;5277186;26;20014;-63
2024/04/14 06:41:24;;;;;;;10.13;5.20;;;;;;;;;;5280601;26;20013;-63
2024/04/14 06:43:49;;;;;;;8.25;5.03;;;;;;;;;;5282032;26;20003;-63
2024/04/14 06:46:15;;;;;;;6.55;4.60;;;;;;;;;;5280023;26;20001;-63
2024/04/14 06:48:40;;;;;;;6.05;4.30;;;;;;;;;;5283917;26;20037;-62
2024/04/14 06:51:06;;;;;;;6.72;4.07;;;;;;;;;;5281213;26;20009;-63
2024/04/14 06:53:31;;;;;;;7.90;4.75;;;;;;;;;;5283429;26;20002;-62
2024/04/14 06:56:00;;;;;;;6.80;4.32;;;;;;;;;;5284844;26;20347;-62
2024/04/14 06:58:25;;;;;;;9.52;4.18;;;;;;;;;;5283390;26;20031;-61
2024/04/14 07:00:50;;;;;;;7.78;4.22;;;;;;;;;;5278907;26;20539;-63
2024/04/14 07:03:15;;;;;;;7.90;4.55;;;;;;;;;;5286663;26;20001;-63
2024/04/14 07:05:41;;;;;;;7.53;3.83;;;;;;;;;;5283906;26;20017;-62
2024/04/14 07:08:06;;;;;;;7.95;4.60;;;;;;;;;;5285989;26;20002;-62
2024/04/14 07:10:32;;;;;;;6.78;4.30;;;;;;;;;;5281233;26;20974;-61
2024/04/14 07:12:57;;;;;;;7.93;4.45;;;;;;;;;;5285170;26;20006;-61
2024/04/14 07:15:22;;;;;;;7.68;4.43;;;;;;;;;;5291417;26;19998;-61
2024/04/14 07:17:48;;;;;;;12.50;4.82;;;;;;;;;;5284020;26;20349;-61
2024/04/14 07:20:13;;;;;;;7.90;3.85;;;;;;;;;;5281485;26;20001;-62
2024/04/14 07:22:38;;;;;;;7.65;4.57;;;;;;;;;;5280685;26;19998;-62
2024/04/14 07:25:04;;;;;;;7.30;4.18;;;;;;;;;;5281079;26;19997;-61
2024/04/14 07:27:29;;;;;;;7.10;4.00;;;;;;;;;;5282670;26;21239;-63
2024/04/14 07:29:54;;;;;;;6.43;4.07;;;;;;;;;;5280236;26;20083;-62
2024/04/14 07:32:20;;;;;;;5.90;4.15;;;;;;;;;;5283486;26;19999;-61
2024/04/14 07:34:45;;;;;;;9.32;4.50;;;;;;;;;;5278850;26;20087;-62
2024/04/14 07:37:10;;;;;;;8.32;3.88;;;;;;;;;;5252519;27;20017;-61
2024/04/14 07:39:36;;;;;;;6.50;3.83;;;;;;;;;;5278785;26;20017;-61
2024/04/14 07:42:04;;;;;;;8.27;3.25;;;;;;;;;;5278758;26;20006;-62
2024/04/14 07:44:30;;;;;;;10.52;3.95;;;;;;;;;;5283217;26;20002;-62
2024/04/14 07:46:56;;;;;;;7.72;3.67;;;;;;;;;;5276814;26;20465;-62
2024/04/14 07:49:23;;;;;;;7.05;3.63;;;;;;;;;;5280868;26;20583;-63
2024/04/14 07:51:49;;;;;;;5.95;3.08;;;;;;;;;;5277868;26;20084;-62
2024/04/14 07:54:14;;;;;;;6.63;3.60;;;;;;;;;;5278604;26;20014;-61
2024/04/14 07:56:40;;;;;;;5.97;3.10;;;;;;;;;;5279626;26;20010;-62
2024/04/14 07:59:05;;;;;;;6.13;3.03;;;;;;;;;;5279638;26;22448;-62
2024/04/14 08:01:31;;;;;;;6.25;3.05;;;;;;;;;;5282750;26;20093;-61
2024/04/14 08:03:56;;;;;;;5.95;3.35;;;;;;;;;;5282032;26;20010;-62
2024/04/14 08:06:21;;;;;;;3.72;2.83;;;;;;;;;;5285317;26;20005;-61
2024/04/14 08:08:47;;;;;;;7.47;3.53;;;;;;;;;;5282888;26;20017;-60
2024/04/14 08:11:12;;;;;;;7.15;2.90;;;;;;;;;;5283829;26;20017;-60
2024/04/14 08:13:37;;;;;;;5.80;2.80;;;;;;;;;;5281871;26;20001;-60
2024/04/14 08:16:03;;;;;;;6.28;3.17;;;;;;;;;;5284031;26;20012;-60
2024/04/14 08:18:28;;;;;;;8.18;3.40;;;;;;;;;;5282024;26;20038;-60
2024/04/14 08:20:58;;;;;;;5.57;3.03;;;;;;;;;;5282661;26;20080;-60
2024/04/14 08:23:23;;;;;;;9.10;3.28;;;;;;;;;;5253960;27;19998;-60
2024/04/14 08:25:48;;;;;;;5.65;3.10;;;;;;;;;;5285322;26;20069;-60
2024/04/14 08:28:13;;;;;;;16.90;3.45;;;;;;;;;;5283694;26;20002;-61
2024/04/14 08:30:39;;;;;;;8.73;3.50;;;;;;;;;;5283136;26;20422;-60
2024/04/14 08:33:04;;;;;;;6.40;2.97;;;;;;;;;;5282254;26;19998;-60
2024/04/14 08:35:29;;;;;;;4.40;2.90;;;;;;;;;;5282396;26;20033;-60
2024/04/14 08:37:55;;;;;;;4.72;2.78;;;;;;;;;;5284968;26;20016;-62
2024/04/14 08:40:20;;;;;;;5.35;3.28;;;;;;;;;;5285071;26;20777;-60
2024/04/14 08:42:46;;;;;;;5.85;3.40;;;;;;;;;;5282320;26;20033;-61
2024/04/14 08:45:11;;;;;;;5.75;3.13;;;;;;;;;;5283186;26;20003;-61
2024/04/14 08:47:36;;;;;;;6.28;2.97;;;;;;;;;;5288251;26;20092;-60
2024/04/14 08:50:02;;;;;;;6.00;3.15;;;;;;;;;;5237163;27;19999;-62
2024/04/14 08:52:28;;;;;;;6.43;3.10;;;;;;;;;;5281038;26;20508;-61
2024/04/14 08:54:53;;;;;;;4.80;2.83;;;;;;;;;;5286355;26;20017;-61
2024/04/14 08:57:19;;;;;;;4.90;2.92;;;;;;;;;;5282192;26;20009;-61
2024/04/14 08:59:44;;;;;;;6.32;2.80;;;;;;;;;;5283905;26;20009;-62
2024/04/14 09:02:10;;;;;;;8.60;2.60;;;;;;;;;;5249710;27;20013;-61
2024/04/14 09:04:35;;;;;;;4.50;2.60;;;;;;;;;;5285404;26;20026;-61
2024/04/14 09:07:00;;;;;;;3.63;2.78;;;;;;;;;;5302764;26;19997;-61
2024/04/14 09:09:26;;;;;;;5.65;3.25;;;;;;;;;;5302756;26;20037;-61
2024/04/14 09:11:55;;;;;;;5.05;2.97;;;;;;;;;;5284871;27;20030;-62
2024/04/14 09:14:22;;;;;;;4.32;2.83;;;;;;;;;;5272707;27;20084;-62
2024/04/14 09:16:47;;;;;;;6.93;3.10;;;;;;;;;;5301168;27;20005;-61
2024/04/14 09:19:13;;;;;;;4.93;2.92;;;;;;;;;;5277471;26;20018;-61
2024/04/14 09:21:38;;;;;;;5.28;3.05;;;;;;;;;;5277122;27;20006;-61
2024/04/14 09:24:04;;;;;;;4.68;2.90;;;;;;;;;;5269990;27;20014;-61
2024/04/14 09:26:29;;;;;;;5.18;2.90;;;;;;;;;;5296335;27;20009;-62
2024/04/14 09:29:03;;;;;;;5.20;3.10;;;;;;;;;;5298525;26;20002;-61
2024/04/14 09:31:29;;;;;;;5.15;3.00;;;;;;;;;;5242582;27;20041;-61
2024/04/14 09:33:54;;;;;;;5.35;3.10;;;;;;;;;;5307638;26;20045;-60
2024/04/14 09:36:22;;;;;;;5.15;2.67;;;;;;;;;;5274362;27;20003;-61
2024/04/14 09:38:47;;;;;;;5.32;3.10;;;;;;;;;;5292135;26;19998;-61
2024/04/14 09:41:13;;;;;;;4.43;2.72;;;;;;;;;;5259825;27;20009;-61
2024/04/14 09:43:38;;;;;;;4.93;2.65;;;;;;;;;;5268669;27;20420;-62
2024/04/14 09:46:03;;;;;;;6.43;3.30;;;;;;;;;;5240804;27;20017;-62
2024/04/14 09:48:29;;;;;;;5.85;2.72;;;;;;;;;;5287597;27;20002;-61
2024/04/14 09:50:54;;;;;;;4.32;2.47;;;;;;;;;;5273713;26;20021;-61
2024/04/14 09:53:19;;;;;;;3.53;2.53;;;;;;;;;;5272841;26;20010;-62
2024/04/14 09:55:45;;;;;;;3.65;2.47;;;;;;;;;;5268780;27;20460;-62
2024/04/14 09:58:10;;;;;;;5.07;2.92;;;;;;;;;;5276563;26;20002;-61
2024/04/14 10:00:35;;;;;;;3.67;2.55;;;;;;;;;;5268933;27;19994;-61
2024/04/14 10:03:02;;;;;;;5.55;3.10;;;;;;;;;;5284596;27;19998;-61
2024/04/14 10:05:27;;;;;;;4.30;2.80;;;;;;;;;;5272744;27;20010;-61
2024/04/14 10:07:53;;;;;;;3.22;2.40;;;;;;;;;;5301664;27;20013;-61
2024/04/14 10:10:19;;;;;;;9.20;2.67;;;;;;;;;;5248083;27;20454;-61
2024/04/14 10:12:45;;;;;;;11.68;2.92;;;;;;;;;;5271164;27;20010;-61
2024/04/14 10:15:12;;;;;;;8.02;3.10;;;;;;;;;;5272235;27;20002;-61
2024/04/14 10:17:38;;;;;;;7.20;2.65;;;;;;;;;;5255440;26;20005;-62
2024/04/14 10:20:06;;;;;;;5.82;2.50;;;;;;;;;;5274965;27;19999;-61
2024/04/14 10:22:32;;;;;;;7.57;2.80;;;;;;;;;;5266294;26;20424;-62
2024/04/14 10:24:57;;;;;;;6.53;2.85;;;;;;;;;;5299980;27;20778;-61
2024/04/14 10:27:23;;;;;;;8.75;2.75;;;;;;;;;;5272229;27;20018;-62
2024/04/14 10:29:55;;;;;;;7.50;2.40;;;;;;;;;;5281264;26;20009;-62
2024/04/14 10:32:21;;;;;;;5.47;2.38;;;;;;;;;;5282746;27;21029;-62
2024/04/14 10:34:46;;;;;;;4.50;2.42;;;;;;;;;;5281500;27;20041;-63
2024/04/14 10:37:20;;;;;;;4.60;2.85;;;;;;;;;;5289211;27;20001;-61
2024/04/14 10:39:46;;;;;;;4.32;2.30;;;;;;;;;;5259009;27;20075;-61
2024/04/14 10:42:11;;;;;;;5.05;2.58;;;;;;;;;;5295082;27;20400;-61
2024/04/14 10:44:41;;;;;;;3.88;2.22;;;;;;;;;;5272329;27;20024;-61
2024/04/14 10:47:06;;;;;;;4.53;2.50;;;;;;;;;;5303565;27;20464;-62
2024/04/14 10:49:32;;;;;;;4.18;2.38;;;;;;;;;;5262416;27;20006;-60
2024/04/14 10:51:57;;;;;;;5.22;2.10;;;;;;;;;;5270853;27;20034;-62
2024/04/14 10:54:22;;;;;;;5.15;2.22;;;;;;;;;;5252871;27;20084;-60
2024/04/14 10:56:49;;;;;;;3.30;1.88;;;;;;;;;;5290551;27;20016;-62
2024/04/14 10:59:15;;;;;;;5.35;2.17;;;;;;;;;;5261386;27;20067;-60
2024/04/14 11:01:40;;;;;;;4.97;2.40;;;;;;;;;;5295758;27;20110;-61
2024/04/14 11:04:11;;;;;;;3.17;1.98;;;;;;;;;;5280891;26;20016;-61
2024/04/14 11:06:36;;;;;;;5.30;2.30;;;;;;;;;;5286253;26;20003;-60
2024/04/14 11:09:02;;;;;;;2.83;1.75;;;;;;;;;;5280341;26;21354;-61
2024/04/14 11:11:27;;;;;;;4.45;2.03;;;;;;;;;;5283471;26;20020;-62
2024/04/14 11:13:53;;;;;;;4.10;2.35;;;;;;;;;;5285288;26;20034;-62
2024/04/14 11:16:18;;;;;;;4.97;2.15;;;;;;;;;;5282573;26;20397;-62
2024/04/14 11:18:46;;;;;;;3.78;2.13;;;;;;;;;;5282357;26;20013;-62
2024/04/14 11:21:16;;;;;;;5.00;1.90;;;;;;;;;;5284883;26;20005;-63
2024/04/14 11:23:41;;;;;;;4.57;2.10;;;;;;;;;;5282501;26;20084;-63
2024/04/14 11:26:09;;;;;;;5.00;1.90;;;;;;;;;;5283445;26;20005;-62
2024/04/14 11:28:34;;;;;;;3.50;1.92;;;;;;;;;;5281947;26;20007;-61
2024/04/14 11:30:59;;;;;;;3.67;2.15;;;;;;;;;;5255138;26;20573;-62
2024/04/14 11:33:25;;;;;;;4.38;2.00;;;;;;;;;;5280295;26;20018;-62
2024/04/14 11:35:59;;;;;;;3.88;2.03;;;;;;;;;;5285782;26;20079;-61
2024/04/14 11:38:24;;;;;;;4.85;1.95;;;;;;;;;;5280112;26;20034;-62
2024/04/14 11:40:49;;;;;;;4.80;2.03;;;;;;;;;;5283275;26;20078;-62
2024/04/14 11:43:15;;;;;;;5.30;2.15;;;;;;;;;;5252597;27;20507;-61
2024/04/14 11:45:48;;;;;;;7.57;1.95;;;;;;;;;;5283065;26;19999;-61
2024/04/14 11:48:13;;;;;;;4.40;1.90;;;;;;;;;;5286182;26;20143;-62
2024/04/14 11:50:38;;;;;;;3.58;2.15;;;;;;;;;;5284211;26;19998;-62
2024/04/14 11:53:04;;;;;;;3.30;1.85;;;;;;;;;;5282767;26;20858;-61
2024/04/14 11:55:29;;;;;;;3.28;1.80;;;;;;;;;;5284730;26;19994;-61
2024/04/14 11:57:54;;;;;;;3.22;1.90;;;;;;;;;;5284415;26;19998;-61
2024/04/14 12:00:19;;;;;;;3.25;2.00;;;;;;;;;;5281935;26;20012;-62
2024/04/14 12:02:45;;;;;;;4.00;1.80;;;;;;;;;;5284298;26;20416;-60
2024/04/14 12:05:10;;;;;;;4.25;1.92;;;;;;;;;;5279047;26;20021;-61
2024/04/14 12:07:36;;;;;;;3.58;1.85;;;;;;;;;;5285192;26;20025;-61
2024/04/14 12:10:01;;;;;;;4.10;2.00;;;;;;;;;;5282810;26;20011;-59
2024/04/14 12:12:26;;;;;;;2.88;1.63;;;;;;;;;;5282108;26;20304;-59
2024/04/14 12:14:52;;;;;;;2.83;1.65;;;;;;;;;;5281119;26;20341;-60
2024/04/14 12:17:17;;;;;;;4.32;1.77;;;;;;;;;;5283520;26;20002;-61
2024/04/14 12:19:42;;;;;;;3.33;1.80;;;;;;;;;;5286043;26;20024;-61
2024/04/14 12:22:08;;;;;;;3.40;1.80;;;;;;;;;;5284466;26;19997;-61
2024/04/14 12:24:33;;;;;;;2.42;1.58;;;;;;;;;;5285164;26;19998;-60
2024/04/14 12:26:58;;;;;;;2.60;1.58;;;;;;;;;;5280867;26;20017;-61
2024/04/14 12:29:24;;;;;;;3.65;1.52;;;;;;;;;;5281202;26;20009;-60
2024/04/14 12:31:49;;;;;;;2.90;1.70;;;;;;;;;;5282367;26;20049;-60
2024/04/14 12:34:15;;;;;;;3.75;1.90;;;;;;;;;;5282454;26;20012;-61
2024/04/14 12:36:40;;;;;;;5.97;2.10;;;;;;;;;;5280818;26;20384;-62
2024/04/14 12:39:06;;;;;;;4.05;1.73;;;;;;;;;;5282107;26;20006;-60
2024/04/14 12:41:31;;;;;;;3.80;1.75;;;;;;;;;;5280634;26;20626;-60
2024/04/14 12:43:56;;;;;;;3.10;1.55;;;;;;;;;;5279942;26;20336;-61
2024/04/14 12:46:22;;;;;;;4.07;1.58;;;;;;;;;;5287235;26;20016;-61
2024/04/14 12:48:49;;;;;;;3.28;1.55;;;;;;;;;;5280430;26;20002;-60
2024/04/14 12:51:14;;;;;;;3.65;1.80;;;;;;;;;;5283216;26;20005;-60
2024/04/14 12:53:39;;;;;;;2.53;1.58;;;;;;;;;;5283383;26;20508;-60
2024/04/14 12:56:05;;;;;;;2.65;1.45;;;;;;;;;;5284691;26;20013;-61
2024/04/14 12:58:30;;;;;;;1.63;1.17;;;;;;;;;;5286616;26;20433;-63
2024/04/14 13:00:56;;;;;;;3.92;1.50;;;;;;;;;;5282409;26;20006;-61
2024/04/14 13:03:22;;;;;;;3.25;1.40;;;;;;;;;;5282852;26;20113;-60
2024/04/14 13:05:47;;;;;;;4.22;1.60;;;;;;;;;;5285299;26;20002;-62
2024/04/14 13:08:13;;;;;;;3.70;1.70;;;;;;;;;;5281803;26;20344;-63
2024/04/14 13:10:38;;;;;;;3.95;1.42;;;;;;;;;;5282610;26;20076;-63
2024/04/14 13:13:03;;;;;;;3.10;1.70;;;;;;;;;;5281864;26;20110;-62
2024/04/14 13:15:29;;;;;;;2.90;1.50;;;;;;;;;;5253059;27;20415;-61
2024/04/14 13:17:54;;;;;;;5.72;1.70;;;;;;;;;;5279277;26;20035;-61
2024/04/14 13:20:19;;;;;;;4.57;1.65;;;;;;;;;;5272263;26;20484;-61
2024/04/14 13:22:45;;;;;;;4.63;1.63;;;;;;;;;;5282842;26;20010;-61
2024/04/14 13:25:10;;;;;;;3.45;1.13;;;;;;;;;;5281958;26;20436;-61
2024/04/14 13:27:35;;;;;;;2.78;1.50;;;;;;;;;;5280915;26;20114;-61
2024/04/14 13:30:01;;;;;;;2.25;1.30;;;;;;;;;;5283728;26;20458;-61
2024/04/14 13:32:26;;;;;;;3.17;0.90;;;;;;;;;;5284343;26;20005;-61
2024/04/14 13:34:51;;;;;;;2.72;1.27;;;;;;;;;;5281929;26;20005;-61
2024/04/14 13:37:17;;;;;;;1.92;1.20;;;;;;;;;;5250922;27;20110;-61
2024/04/14 13:39:43;;;;;;;2.67;1.15;;;;;;;;;;5283446;26;20035;-61
2024/04/14 13:42:08;;;;;;;3.30;1.30;;;;;;;;;;5281331;26;20002;-61
2024/04/14 13:44:36;;;;;;;3.78;1.23;;;;;;;;;;5280099;26;20012;-61
2024/04/14 13:47:02;;;;;;;2.95;1.08;;;;;;;;;;5282792;26;20002;-63
2024/04/14 13:49:27;;;;;;;4.47;1.20;;;;;;;;;;5289376;26;20017;-62
2024/04/14 13:51:52;;;;;;;6.13;1.35;;;;;;;;;;5283141;26;20032;-61
2024/04/14 13:54:18;;;;;;;2.17;1.33;;;;;;;;;;5280792;26;20003;-62
2024/04/14 13:56:43;;;;;;;2.03;1.20;;;;;;;;;;5283563;26;20010;-62
2024/04/14 13:59:09;;;;;;;3.22;1.35;;;;;;;;;;5286612;26;20001;-62
2024/04/14 14:01:35;;;;;;;3.97;1.05;;;;;;;;;;5286044;26;20011;-62
2024/04/14 14:04:00;;;;;;;2.42;1.00;;;;;;;;;;5290795;26;20018;-62
2024/04/14 14:06:25;;;;;;;2.25;1.10;;;;;;;;;;5285312;26;20002;-61
2024/04/14 14:08:51;;;;;;;3.35;1.30;;;;;;;;;;5283894;26;20021;-61
2024/04/14 14:11:16;;;;;;;1.80;1.20;;;;;;;;;;5287636;26;19999;-61
2024/04/14 14:13:41;;;;;;;2.30;1.20;;;;;;;;;;5284130;26;20075;-61
2024/04/14 14:16:07;;;;;;;2.42;1.20;;;;;;;;;;5282720;26;20010;-61
2024/04/14 14:18:32;;;;;;;2.70;1.23;;;;;;;;;;5285174;26;19998;-62
2024/04/14 14:20:57;;;;;;;1.88;1.20;;;;;;;;;;5287834;26;19998;-62
2024/04/14 14:23:23;;;;;;;3.28;1.48;;;;;;;;;;5282736;26;20009;-61
2024/04/14 14:25:48;;;;;;;2.83;0.95;;;;;;;;;;5284426;26;20404;-64
2024/04/14 14:28:13;;;;;;;2.58;1.20;;;;;;;;;;5283770;26;20462;-63
2024/04/14 14:30:39;;;;;;;1.98;0.93;;;;;;;;;;5283508;26;20331;-61
2024/04/14 14:38:40;;;;;;;1.80;1.20;;;;;;;;;;5259885;27;20888;-61
2024/04/14 14:41:06;;;;;;;3.42;1.17;;;;;;;;;;5288434;26;20002;-63